• Join FlightAware (Why Join?)
  • Login
  • US Flag 
01:19AM EDT


 

Airport Tracker/Info


-or-


 

Live Flight TrackerFlight Track Log ✈ DAL109 ✈ 25-Sep-2013 ✈ LEMD / MAD - KATL

Flight Track Log - Related Links

Times and Time Zones

All times are in EDT time to prevent confusion due to time zone crossing. See the DAL109 flight status page for this flight to view local times or setup timezone preferences in your user account.

Time Position Orientation Groundspeed Altitude Reporting Facility
EDT Latitude Longitude Course Direction KTS MPH feet Rate Location/Type
05:14AM 40.5000 -3.5760 360° North 120 138  Level FlightAware
05:15AM 40.5130 -3.5760 360° North 175 201 3,420 Level FlightAware
05:15AM 40.5300 -3.5760 360° North 207 238 2,200 4,500 Climbing FlightAware
05:15AM 40.5510 -3.5760 360° North 212 244 3,000 2,160 Climbing FlightAware
05:16AM 40.5600 -3.5770 355° North 213 245 3,300 2,220 Climbing FlightAware
05:16AM 40.5660 -3.5800 339° North 212 244 3,600 1,860 Climbing FlightAware
05:16AM 40.5720 -3.5860 323° Northwest 213 245 3,800 1,500 Climbing FlightAware
05:16AM 40.5760 -3.5920 311° West 214 246 3,900 1,200 Climbing FlightAware
05:16AM 40.5780 -3.5970 298° West 216 249 4,000 1,740 Climbing FlightAware
05:16AM 40.5900 -3.6200 304° West 219 252 4,700 1,740 Climbing FlightAware
05:17AM 40.6020 -3.6350 316° Northwest 222 255 5,100 1,140 Climbing FlightAware
05:17AM 40.6180 -3.6540 318° Northwest 241 277 5,400 960 Climbing FlightAware
05:17AM 40.6320 -3.6690 321° Northwest 257 296 5,700 1,200 Climbing FlightAware
05:17AM 40.6410 -3.6740 337° Northwest 264 304 5,900 1,500 Climbing FlightAware
05:17AM 40.6470 -3.6760 346° North 270 311 6,000 1,200 Climbing FlightAware
05:17AM 40.6540 -3.6770 354° North 278 320 6,100 900 Climbing FlightAware
05:18AM 40.6800 -3.6740 North 298 343 6,400 1,680 Climbing FlightAware
05:18AM 40.7170 -3.6680 North 305 351 7,400 2,160 Climbing FlightAware
05:19AM 40.7440 -3.6650 North 306 352 8,100 900 Climbing FlightAware
05:19AM 40.7750 -3.6620 North 306 352 8,100 1,980 Level FlightAware
05:19AM 40.7890 -3.6880 305° West 301 346 9,300 4,620 Climbing FlightAware
05:19AM 40.8000 -3.7080 306° West 298 343 9,800 1,740 Climbing FlightAware
05:20AM 40.8250 -3.7650 300° West 319 367 10,700 1,500 Climbing FlightAware
05:21AM 40.8500 -3.8250 299° West 339 390 11,600 1,740 Climbing FlightAware
05:21AM 40.8790 -3.8930 299° West 348 400 12,800 1,860 Climbing FlightAware
05:22AM 40.9070 -3.9610 299° West 359 413 13,900 1,920 Climbing FlightAware
05:22AM 40.9320 -4.0220 298° West 364 419 15,000 1,560 Climbing FlightAware
05:23AM 40.9630 -4.0960 299° West 387 445 15,700 1,080 Climbing FlightAware
05:23AM 40.9930 -4.1700 298° West 405 466 16,300 1,260 Climbing FlightAware
05:24AM 41.0240 -4.2470 298° West 418 481 17,200 1,440 Climbing FlightAware
05:25AM 41.0560 -4.3330 296° West 434 499 18,000 1,800 Climbing FlightAware
05:25AM 41.0880 -4.4170 297° West 428 493 19,400 1,980 Climbing FlightAware
05:26AM 41.1200 -4.5010 297° West 433 498 20,400 1,200 Climbing FlightAware
05:26AM 41.1490 -4.5790 296° West 449 517 20,800 1,320 Climbing FlightAware
05:27AM 41.1750 -4.6650 292° West 447 514 21,900 1,560 Climbing FlightAware
05:28AM 41.2060 -4.7500 296° West 451 519 22,700 1,440 Climbing FlightAware
05:28AM 41.2380 -4.8370 296° West 455 524 23,600 1,380 Climbing FlightAware
05:29AM 41.2690 -4.9240 295° West 461 531 24,300 1,260 Climbing FlightAware
05:29AM 41.2980 -5.0020 296° West 463 533 25,000 1,560 Climbing FlightAware
05:30AM 41.3350 -5.1020 296° West 458 527 26,200 1,740 Climbing FlightAware
05:30AM 41.3670 -5.1910 296° West 456 525 27,200 1,680 Climbing FlightAware
05:31AM 41.4040 -5.2940 296° West 450 518 28,300 1,440 Climbing FlightAware
05:32AM 41.4360 -5.3810 296° West 449 517 29,000 600 Climbing FlightAware
05:32AM 41.4670 -5.4680 295° West 451 519 29,000  Level FlightAware
05:33AM 41.5010 -5.5630 296° West 441 507 29,000  Level FlightAware
05:33AM 41.5320 -5.6400 298° West 446 513 29,000  Level FlightAware
05:34AM 41.5720 -5.7200 304° West 449 517 29,000  Level FlightAware
05:35AM 41.6110 -5.7940 305° West 449 517 29,000  Level FlightAware
05:35AM 41.6560 -5.8780 306° West 447 514 29,000  Level FlightAware
05:36AM 41.6970 -5.9560 305° West 445 512 29,000  Level FlightAware
05:36AM 41.7380 -6.0350 305° West 444 511 29,000  Level FlightAware
05:37AM 41.7790 -6.1130 305° West 444 511 29,000  Level FlightAware
05:38AM 41.8190 -6.1910 305° West 444 511 29,000  Level FlightAware
05:38AM 41.8620 -6.2730 305° West 444 511 29,000  Level FlightAware
05:39AM 41.9020 -6.3510 305° West 444 511 29,000  Level FlightAware
05:39AM 41.9430 -6.4300 305° West 445 512 29,000  Level FlightAware
05:40AM 41.9840 -6.5100 305° West 446 513 29,000  Level FlightAware
05:40AM 42.0250 -6.5890 305° West 447 514 29,000  Level FlightAware
05:41AM 42.0640 -6.6660 304° West 448 516 29,000  Level FlightAware
05:42AM 42.1070 -6.7500 305° West 450 518 29,000  Level FlightAware
05:42AM 42.1490 -6.8330 304° West 452 520 29,000  Level FlightAware
05:43AM 42.1890 -6.9110 305° West 452 520 29,000 720 Level FlightAware
05:43AM 42.2360 -7.0040 304° West 450 518 29,900 1,020 Climbing FlightAware
05:44AM 42.2790 -7.0890 304° West 456 525 30,300 720 Climbing FlightAware
05:45AM 42.3240 -7.1800 304° West 457 526 30,800 600 Climbing FlightAware
05:45AM 42.3570 -7.2450 305° West 456 525 31,000 180 Climbing FlightAware
05:46AM 42.4010 -7.3330 304° West 457 526 31,000  Level FlightAware
05:46AM 42.4490 -7.4300 304° West 458 527 31,000  Level FlightAware
05:47AM 42.4860 -7.5030 305° West 460 529 31,000  Level FlightAware
05:48AM 42.5220 -7.5760 304° West 462 532 31,000  Level FlightAware
05:48AM 42.5690 -7.6710 304° West 464 534 31,000  Level FlightAware
05:49AM 42.6100 -7.7540 304° West 463 533 31,000  Level FlightAware
05:49AM 42.6520 -7.8400 304° West 461 531 31,000  Level FlightAware
05:50AM 42.6930 -7.9240 304° West 461 531 31,000  Level FlightAware
05:51AM 42.7410 -8.0220 304° West 457 526 31,000  Level FlightAware
05:51AM 42.7740 -8.0900 303° West 457 526 31,000  Level FlightAware
05:52AM 42.8210 -8.1850 304° West 457 526 31,000  Level FlightAware
05:52AM 42.8580 -8.2620 303° West 457 526 31,000  Level FlightAware
05:53AM 42.8980 -8.3460 303° West 456 525 31,000  Level FlightAware
05:53AM 42.9380 -8.4140 309° West 466 536 31,000  Level FlightAware
05:54AM 42.9940 -8.4840 318° Northwest 468 539 31,000  Level FlightAware
05:54AM 43.0500 -8.5500 319° Northwest 467 537 31,000  Level FlightAware
05:55AM 43.1090 -8.6190 320° Northwest 467 537 31,000  Level FlightAware
05:56AM 43.1650 -8.6860 319° Northwest 465 535 31,000  Level FlightAware
05:56AM 43.2220 -8.7530 319° Northwest 463 533 31,000  Level FlightAware
05:57AM 43.2710 -8.8120 319° Northwest 462 532 31,000  Level FlightAware
05:57AM 43.3300 -8.8830 319° Northwest 462 532 31,000  Level FlightAware
05:58AM 43.3840 -8.9480 319° Northwest 462 532 31,000  Level FlightAware
05:58AM 43.4400 -9.0150 319° Northwest 462 532 31,000  Level FlightAware
05:59AM 43.5040 -9.0940 318° Northwest 463 533 31,000  Level FlightAware
06:00AM 43.5610 -9.1620 319° Northwest 462 532 31,000  Level FlightAware
06:00AM 43.6250 -9.2400 319° Northwest 462 532 31,000  Level FlightAware
06:01AM 43.6780 -9.3050 318° Northwest 463 533 31,000  Level FlightAware
06:02AM 43.7340 -9.3730 319° Northwest 464 534 31,000  Level FlightAware
06:02AM 43.8020 -9.4560 319° Northwest 465 535 31,000  Level FlightAware
06:03AM 43.8540 -9.5220 318° Northwest 466 536 31,000  Level FlightAware
06:03AM 43.9220 -9.6050 319° Northwest 466 536 31,000  Level FlightAware
06:04AM 43.9690 -9.6630 318° Northwest 467 537 31,000 60 Level FlightAware
06:05AM 44.0240 -9.7320 318° Northwest 468 539 31,100 720 Climbing FlightAware
06:05AM 44.0900 -9.8140 318° Northwest 466 536 31,900 1,020 Climbing FlightAware
06:06AM 44.1470 -9.8850 318° Northwest 467 537 32,400 720 Climbing FlightAware
06:06AM 44.1940 -9.9450 318° Northwest 468 539 32,700 540 Climbing FlightAware
06:07AM 44.2490 -10.0130 318° Northwest 469 540 33,000 240 Climbing FlightAware
06:08AM 44.3110 -10.0910 318° Northwest 469 540 33,000  Level FlightAware
06:08AM 44.3710 -10.1670 318° Northwest 470 541 33,000  Level FlightAware
06:09AM 44.4200 -10.2290 318° Northwest 470 541 33,000  Level FlightAware
06:09AM 44.4840 -10.3110 318° Northwest 470 541 33,000  Level FlightAware
06:10AM 44.5330 -10.3730 318° Northwest 471 542 33,000  Level FlightAware
06:10AM 44.5910 -10.4470 318° Northwest 471 542 33,000  Level FlightAware
06:11AM 44.6460 -10.5190 317° Northwest 471 542 33,000  Level FlightAware
06:12AM 44.6950 -10.5810 318° Northwest 472 543 33,000  Level FlightAware
06:12AM 44.7510 -10.6540 317° Northwest 472 543 33,000  Level FlightAware
06:13AM 44.8150 -10.7370 317° Northwest 472 543 33,000  Level FlightAware
06:13AM 44.8610 -10.7970 317° Northwest 472 543 33,000  Level FlightAware
06:14AM 44.9220 -10.8760 317° Northwest 473 544 33,000  Level FlightAware
06:14AM 44.9750 -10.9460 317° Northwest 471 542 33,000  Level FlightAware
06:15AM 45.0060 -11.0050 307° West 453 521 33,000  Level FlightAware
06:16AM 45.0380 -11.1080 294° West 442 509 33,000  Level FlightAware
06:16AM 45.0630 -11.1990 291° West 442 509 33,000  Level FlightAware
06:17AM 45.0900 -11.3010 291° West 442 509 33,000  Level FlightAware
06:18AM 45.1260 -11.4350 291° West 443 510 33,000  Level FlightAware
06:18AM 45.1500 -11.5260 291° West 443 510 33,000  Level FlightAware
06:19AM 45.1800 -11.6400 291° West 443 510 33,000  Level FlightAware
06:19AM 45.2040 -11.7310 291° West 443 510 33,000  Level FlightAware
06:20AM 45.2300 -11.8300 290° West 444 511 33,000  Level FlightAware
06:21AM 45.2540 -11.9240 290° West 447 514 33,000  Level FlightAware
06:21AM 45.2800 -12.0240 290° West 448 516 33,000  Level FlightAware
06:22AM 45.3050 -12.1190 291° West 448 516 33,000  Level FlightAware
06:23AM 45.3380 -12.2470 290° West 448 516 33,000  Level FlightAware
06:23AM 45.3640 -12.3540 289° West 448 516 33,000  Level FlightAware
06:24AM 45.3860 -12.4420 290° West 448 516 33,000  Level FlightAware
06:24AM 45.4070 -12.5300 289° West 448 516 33,000  Level FlightAware
06:25AM 45.4270 -12.6150 289° West 448 516 33,000  Level FlightAware
06:26AM 45.3490 -12.2900 109° East 33,000  Level FlightAware
06:26AM 45.4910 -12.8490 290° West 452 520 33,000  Level FlightAware
06:27AM 45.5120 -12.9380 289° West 452 520 33,000  Level FlightAware
06:27AM 45.5340 -13.0270 289° West 452 520 33,000  Level FlightAware
06:28AM 45.4910 -12.8490 109° East 33,000  Level FlightAware
06:28AM 45.5710 -13.1680 290° West 451 519 33,000  Level FlightAware
06:29AM 45.5960 -13.2740 289° West 451 519 33,000  Level FlightAware
06:29AM 45.6180 -13.3630 289° West 451 519 33,000  Level FlightAware
06:30AM 45.6380 -13.4490 288° West 451 519 33,000  Level FlightAware
06:31AM 45.6660 -13.5640 289° West 451 519 33,000  Level FlightAware
06:31AM 45.6870 -13.6510 289° West 451 519 33,000  Level FlightAware
06:32AM 45.7070 -13.7320 289° West 451 519 33,000  Level FlightAware
06:33AM 45.7280 -13.8210 289° West 451 519 33,000  Level FlightAware
06:33AM 45.7490 -13.9080 289° West 451 519 33,000  Level FlightAware
06:34AM 45.7690 -13.9940 288° West 451 519 33,000  Level FlightAware
06:34AM 45.7900 -14.0810 289° West 451 519 33,000  Level FlightAware
06:35AM 45.8110 -14.1670 289° West 451 519 33,000  Level FlightAware
06:36AM 45.8320 -14.2540 289° West 451 519 33,000  Level FlightAware
06:36AM 45.8530 -14.3410 289° West 451 519 33,000  Level FlightAware
06:37AM 45.8740 -14.4300 289° West 451 519 33,000  Level FlightAware
06:37AM 45.8950 -14.5190 289° West 451 519 33,000  Level FlightAware
06:38AM 45.9160 -14.6060 289° West 451 519 33,000  Level FlightAware
06:41AM 45.9861 -15.0517 283° West  Level Estimated
06:42AM 46.0131 -15.2267 283° West  Level Estimated
06:43AM 46.0398 -15.4020 282° West  Level Estimated
06:44AM 46.0661 -15.5757 282° West  Level Estimated
06:45AM 46.0920 -15.7496 282° West  Level Estimated
06:46AM 46.1177 -15.9237 282° West  Level Estimated
06:47AM 46.1432 -16.0979 282° West  Level Estimated
06:48AM 46.1684 -16.2723 282° West  Level Estimated
06:49AM 46.1933 -16.4469 282° West  Level Estimated
06:50AM 46.2179 -16.6216 282° West  Level Estimated
06:51AM 46.2415 -16.7908 281° West  Level Estimated
06:52AM 46.2648 -16.9601 281° West  Level Estimated
06:53AM 46.2879 -17.1297 281° West  Level Estimated
06:54AM 46.3108 -17.2993 281° West  Level Estimated
06:55AM 46.3334 -17.4691 281° West  Level Estimated
06:56AM 46.3782 -17.6311 292° West  Level FlightAware Approximate
06:57AM 46.4228 -17.7933 292° West  Level FlightAware Approximate
06:58AM 46.4672 -17.9558 292° West  Level FlightAware Approximate
06:59AM 46.5113 -18.1186 292° West  Level FlightAware Approximate
07:00AM 46.5553 -18.2816 291° West  Level FlightAware Approximate
07:01AM 46.5989 -18.4449 291° West  Level FlightAware Approximate
07:02AM 46.6424 -18.6084 291° West  Level FlightAware Approximate
07:03AM 46.6856 -18.7723 291° West  Level FlightAware Approximate
07:04AM 46.7286 -18.9363 291° West  Level FlightAware Approximate
07:05AM 46.7714 -19.1007 291° West  Level FlightAware Approximate
07:06AM 46.8139 -19.2653 291° West  Level FlightAware Approximate
07:06AM 47.2333 -19.9333 284° West 504 580 33,000  Level ETMS Enhanced Traffic Management System
07:07AM 46.8562 -19.4301 291° West  Level FlightAware Approximate
07:07AM 47.2500 -20.1333 280° West 501 577 33,000  Level ETMS Enhanced Traffic Management System
07:08AM 46.8982 -19.5953 290° West  Level FlightAware Approximate
07:09AM 46.9400 -19.7607 290° West  Level FlightAware Approximate
07:10AM 46.9822 -19.9286 290° West  Level FlightAware Approximate
07:11AM 47.0149 -20.1037 282° West  Level FlightAware Approximate
07:12AM 47.0399 -20.2791 282° West  Level FlightAware Approximate
07:13AM 47.3897 -21.3491 279° West 501 577 33,000  Level FlightAware Transoceanic
07:14AM 47.4117 -21.5523 279° West 501 577 33,000  Level FlightAware Transoceanic
07:15AM 47.4334 -21.7558 279° West 501 577 33,000  Level FlightAware Transoceanic
07:16AM 47.4547 -21.9593 279° West 501 577 33,000  Level FlightAware Transoceanic
07:17AM 47.4757 -22.1631 279° West 501 577 33,000  Level FlightAware Transoceanic
07:18AM 47.4963 -22.3670 278° West 501 577 33,000  Level FlightAware Transoceanic
07:19AM 47.5165 -22.5710 278° West 501 577 33,000  Level FlightAware Transoceanic
07:20AM 47.5364 -22.7753 278° West 501 577 33,000  Level FlightAware Transoceanic
07:21AM 47.5559 -22.9796 278° West 501 577 33,000  Level FlightAware Transoceanic
07:22AM 47.5750 -23.1842 278° West 501 577 33,000  Level FlightAware Transoceanic
07:23AM 47.5938 -23.3888 278° West 501 577 33,000  Level FlightAware Transoceanic
07:24AM 47.6122 -23.5936 278° West 501 577 33,000  Level FlightAware Transoceanic
07:25AM 47.6302 -23.7986 277° West 501 577 33,000  Level FlightAware Transoceanic
07:26AM 47.6479 -24.0037 277° West 501 577 33,000  Level FlightAware Transoceanic
07:27AM 47.6652 -24.2089 277° West 501 577 33,000  Level FlightAware Transoceanic
07:28AM 47.6822 -24.4143 277° West 501 577 33,000  Level FlightAware Transoceanic
07:29AM 47.6988 -24.6198 277° West 501 577 33,000  Level FlightAware Transoceanic
07:30AM 47.7150 -24.8254 277° West 501 577 33,000  Level FlightAware Transoceanic
07:31AM 47.7309 -25.0312 276° West 501 577 33,000  Level FlightAware Transoceanic
07:32AM 47.7463 -25.2371 276° West 501 577 33,000  Level FlightAware Transoceanic
07:33AM 47.7615 -25.4431 276° West 501 577 33,000  Level FlightAware Transoceanic
07:34AM 47.7762 -25.6492 276° West 501 577 33,000  Level FlightAware Transoceanic
07:35AM 47.7906 -25.8554 276° West 501 577 33,000  Level FlightAware Transoceanic
07:36AM 47.8046 -26.0618 276° West 501 577 33,000  Level FlightAware Transoceanic
07:36AM 47.7333 -26.1167 277° West 523 602 33,000  Level ETMS Enhanced Traffic Management System
07:37AM 47.8182 -26.2682 276° West 501 577 33,000  Level FlightAware Transoceanic
07:38AM 47.8315 -26.4748 275° West 501 577 33,000  Level FlightAware Transoceanic
07:39AM 47.8444 -26.6815 275° West 501 577 33,000  Level FlightAware Transoceanic
07:40AM 47.8569 -26.8883 275° West 501 577 33,000  Level FlightAware Transoceanic
07:41AM 47.8690 -27.0951 275° West 501 577 33,000  Level FlightAware Transoceanic
07:42AM 47.8526 -27.6220 276° West 523 602 33,000  Level FlightAware Transoceanic
07:42AM 47.8500 -27.5833 276° West 532 612 33,000  Level ETMS Enhanced Traffic Management System
07:43AM 47.8680 -27.8376 276° West 523 602 33,000  Level FlightAware Transoceanic
07:44AM 47.8830 -28.0533 276° West 523 602 33,000  Level FlightAware Transoceanic
07:45AM 47.8977 -28.2692 276° West 523 602 33,000  Level FlightAware Transoceanic
07:46AM 47.9119 -28.4851 276° West 523 602 33,000  Level FlightAware Transoceanic
07:47AM 47.9257 -28.7012 275° West 523 602 33,000  Level FlightAware Transoceanic
07:48AM 47.9381 -28.8998 275° West 532 612 33,000  Level FlightAware Transoceanic
07:49AM 47.9513 -29.1196 275° West 532 612 33,000  Level FlightAware Transoceanic
07:50AM 47.9641 -29.3396 275° West 532 612 33,000  Level FlightAware Transoceanic
07:51AM 47.9765 -29.5596 275° West 532 612 33,000  Level FlightAware Transoceanic
07:52AM 47.9885 -29.7798 275° West 532 612 33,000  Level FlightAware Transoceanic
07:53AM 47.9980 -29.9617 275° West  Level FlightAware Approximate
07:54AM 48.0073 -30.1437 274° West  Level FlightAware Approximate
07:55AM 47.9941 -30.1054 265° West  Level FlightAware Approximate
07:56AM 47.9838 -30.2872 265° West  Level FlightAware Approximate
07:57AM 47.9732 -30.4690 265° West  Level FlightAware Approximate
07:58AM 47.9623 -30.6506 265° West  Level FlightAware Approximate
07:59AM 47.9511 -30.8322 265° West  Level FlightAware Approximate
08:00AM 47.9396 -31.0138 265° West  Level FlightAware Approximate
08:01AM 47.9278 -31.1952 265° West  Level FlightAware Approximate
08:02AM 47.9158 -31.3766 264° West  Level FlightAware Approximate
08:03AM 47.9035 -31.5578 264° West  Level FlightAware Approximate
08:04AM 47.8908 -31.7390 264° West  Level FlightAware Approximate
08:05AM 47.8779 -31.9201 264° West  Level FlightAware Approximate
08:06AM 47.8647 -32.1011 264° West  Level FlightAware Approximate
08:07AM 47.8513 -32.2820 264° West  Level FlightAware Approximate
08:08AM 47.8375 -32.4628 264° West  Level FlightAware Approximate
08:09AM 47.8235 -32.6436 263° West  Level FlightAware Approximate
08:10AM 47.8091 -32.8242 263° West  Level FlightAware Approximate
08:11AM 47.7945 -33.0047 263° West  Level FlightAware Approximate
08:12AM 47.7796 -33.1851 263° West  Level FlightAware Approximate
08:13AM 47.7645 -33.3655 263° West  Level FlightAware Approximate
08:14AM 47.7490 -33.5457 263° West  Level FlightAware Approximate
08:15AM 47.7332 -33.7258 263° West  Level FlightAware Approximate
08:16AM 47.7172 -33.9058 263° West  Level FlightAware Approximate
08:17AM 47.7009 -34.0856 262° West  Level FlightAware Approximate
08:18AM 47.6843 -34.2654 262° West  Level FlightAware Approximate
08:19AM 47.6675 -34.4450 262° West  Level FlightAware Approximate
08:20AM 47.6503 -34.6246 262° West  Level FlightAware Approximate
08:21AM 47.6329 -34.8040 262° West  Level FlightAware Approximate
08:22AM 47.6152 -34.9833 262° West  Level FlightAware Approximate
08:23AM 47.5973 -35.1624 262° West  Level FlightAware Approximate
08:24AM 47.5790 -35.3415 261° West  Level FlightAware Approximate
08:25AM 47.5605 -35.5204 261° West  Level FlightAware Approximate
08:26AM 47.5416 -35.6992 261° West  Level FlightAware Approximate
08:27AM 47.5225 -35.8779 261° West  Level FlightAware Approximate
08:28AM 47.5032 -36.0564 261° West  Level FlightAware Approximate
08:29AM 47.4835 -36.2348 261° West  Level FlightAware Approximate
08:30AM 47.4636 -36.4131 261° West  Level FlightAware Approximate
08:31AM 47.4434 -36.5912 261° West  Level FlightAware Approximate
08:32AM 47.4229 -36.7692 260° West  Level FlightAware Approximate
08:33AM 47.4021 -36.9470 260° West  Level FlightAware Approximate
08:34AM 47.3811 -37.1248 260° West  Level FlightAware Approximate
08:35AM 47.3598 -37.3023 260° West  Level FlightAware Approximate
08:36AM 47.3382 -37.4798 260° West  Level FlightAware Approximate
08:37AM 47.3164 -37.6570 260° West  Level FlightAware Approximate
08:38AM 47.2943 -37.8342 260° West  Level FlightAware Approximate
08:39AM 47.2719 -38.0112 259° West  Level FlightAware Approximate
08:40AM 47.2492 -38.1880 259° West  Level FlightAware Approximate
08:41AM 47.2263 -38.3647 259° West  Level FlightAware Approximate
08:42AM 47.2030 -38.5412 259° West  Level FlightAware Approximate
08:43AM 47.1796 -38.7176 259° West  Level FlightAware Approximate
08:44AM 47.1558 -38.8938 259° West  Level FlightAware Approximate
08:45AM 47.1318 -39.0698 259° West  Level FlightAware Approximate
08:46AM 47.1075 -39.2457 259° West  Level FlightAware Approximate
08:47AM 47.0829 -39.4215 258° West  Level FlightAware Approximate
08:48AM 47.0581 -39.5970 258° West  Level FlightAware Approximate
08:49AM 47.0330 -39.7724 258° West  Level FlightAware Approximate
08:50AM 47.0076 -39.9477 258° West  Level FlightAware Approximate
08:51AM 46.9930 -40.1252 265° West  Level FlightAware Approximate
08:52AM 46.9827 -40.3036 265° West  Level FlightAware Approximate
08:53AM 46.9722 -40.4820 265° West  Level FlightAware Approximate
08:54AM 46.9614 -40.6602 265° West  Level FlightAware Approximate
08:55AM 46.9504 -40.8384 265° West  Level FlightAware Approximate
08:56AM 46.9390 -41.0165 265° West  Level FlightAware Approximate
08:57AM 46.9274 -41.1946 265° West  Level FlightAware Approximate
08:58AM 46.9155 -41.3726 264° West  Level FlightAware Approximate
08:59AM 46.9033 -41.5505 264° West  Level FlightAware Approximate
09:00AM 46.8909 -41.7283 264° West  Level FlightAware Approximate
09:01AM 46.8781 -41.9060 264° West  Level FlightAware Approximate
09:02AM 46.8651 -42.0836 264° West  Level FlightAware Approximate
09:03AM 46.8518 -42.2612 264° West  Level FlightAware Approximate
09:04AM 46.8383 -42.4386 264° West  Level FlightAware Approximate
09:05AM 46.8245 -42.6160 264° West  Level FlightAware Approximate
09:06AM 46.8104 -42.7933 263° West  Level FlightAware Approximate
09:07AM 46.7960 -42.9705 263° West  Level FlightAware Approximate
09:08AM 46.7814 -43.1476 263° West  Level FlightAware Approximate
09:09AM 46.7664 -43.3246 263° West  Level FlightAware Approximate
09:10AM 46.7513 -43.5014 263° West  Level FlightAware Approximate
09:11AM 46.7358 -43.6782 263° West  Level FlightAware Approximate
09:12AM 46.7201 -43.8549 263° West  Level FlightAware Approximate
09:13AM 46.7040 -44.0315 263° West  Level FlightAware Approximate
09:14AM 46.6878 -44.2080 262° West  Level FlightAware Approximate
09:15AM 46.6712 -44.3844 262° West  Level FlightAware Approximate
09:16AM 46.6544 -44.5606 262° West  Level FlightAware Approximate
09:17AM 46.6373 -44.7368 262° West  Level FlightAware Approximate
09:18AM 46.6199 -44.9128 262° West  Level FlightAware Approximate
09:19AM 46.6023 -45.0888 262° West  Level FlightAware Approximate
09:20AM 46.5844 -45.2646 262° West  Level FlightAware Approximate
09:21AM 46.5662 -45.4403 262° West  Level FlightAware Approximate
09:22AM 46.5478 -45.6158 261° West  Level FlightAware Approximate
09:23AM 46.5291 -45.7913 261° West  Level FlightAware Approximate
09:24AM 46.5101 -45.9666 261° West  Level FlightAware Approximate
09:25AM 46.4909 -46.1419 261° West  Level FlightAware Approximate
09:26AM 46.4714 -46.3170 261° West  Level FlightAware Approximate
09:27AM 46.4516 -46.4919 261° West  Level FlightAware Approximate
09:28AM 46.4315 -46.6667 261° West  Level FlightAware Approximate
09:29AM 46.4112 -46.8414 260° West  Level FlightAware Approximate
09:30AM 46.3907 -47.0160 260° West  Level FlightAware Approximate
09:31AM 46.3698 -47.1904 260° West  Level FlightAware Approximate
09:32AM 46.3484 -47.3647 260° West  Level FlightAware Approximate
09:33AM 46.3266 -47.5387 260° West  Level FlightAware Approximate
09:34AM 46.3046 -47.7127 260° West  Level FlightAware Approximate
09:35AM 46.2824 -47.8865 260° West  Level FlightAware Approximate
09:36AM 46.2598 -48.0601 259° West  Level FlightAware Approximate
09:37AM 46.2370 -48.2336 259° West  Level FlightAware Approximate
09:38AM 46.2140 -48.4070 259° West  Level FlightAware Approximate
09:39AM 46.1906 -48.5802 259° West  Level FlightAware Approximate
09:40AM 46.1670 -48.7533 259° West  Level FlightAware Approximate
09:41AM 46.1432 -48.9262 259° West  Level FlightAware Approximate
09:42AM 46.1191 -49.0990 259° West  Level FlightAware Approximate
09:43AM 46.0947 -49.2716 259° West  Level FlightAware Approximate
09:44AM 46.0701 -49.4440 258° West  Level FlightAware Approximate
09:45AM 46.0461 -49.6166 260° West  Level FlightAware Approximate
09:46AM 46.0254 -49.7900 260° West  Level FlightAware Approximate
09:47AM 46.0045 -49.9632 260° West  Level FlightAware Approximate
09:48AM 45.9891 -50.1376 264° West  Level FlightAware Approximate
09:48AM 45.9500 -50.3667 257° West 430 495 33,000  Level Gander Center
09:49AM 45.9594 -50.3054 256° West  Level FlightAware Approximate
09:49AM 45.9333 -50.5333 262° West 430 495 33,300  Level Gander Center
09:50AM 45.9294 -50.4730 256° West  Level FlightAware Approximate
09:50AM 45.9167 -50.7167 263° West 440 506 34,000  Level Gander Center
09:51AM 45.8992 -50.6404 256° West  Level FlightAware Approximate
09:51AM 45.9000 -50.8833 262° West 440 506 34,000  Level Gander Center
09:52AM 45.8687 -50.8076 255° West  Level FlightAware Approximate
09:52AM 45.8833 -51.0833 263° West 440 506 34,000  Level Gander Center
09:53AM 45.8380 -50.9747 255° West  Level FlightAware Approximate
09:53AM 45.8667 -51.2333 261° West 440 506 34,000  Level Moncton Center
09:54AM 45.8102 -51.1427 257° West  Level FlightAware Approximate
09:54AM 45.8500 -51.4167 263° West 450 518 34,000  Level Moncton Center
09:55AM 45.8500 -51.5833 270° West 440 506 34,000  Level Moncton Center
09:56AM 45.8333 -51.7667 263° West 440 506 34,000  Level Moncton Center
09:57AM 45.8167 -51.9333 262° West 440 506 34,000  Level Moncton Center
09:58AM 45.8000 -52.1000 262° West 440 506 34,000  Level Moncton Center
09:59AM 45.7833 -52.2667 262° West 430 495 34,000  Level Gander Center
10:00AM 45.7667 -52.4500 263° West 430 495 34,000  Level Moncton Center
10:01AM 45.7667 -52.6167 270° West 430 495 34,000  Level Moncton Center
10:02AM 45.7500 -52.7667 261° West 420 483 34,000  Level Moncton Center
10:03AM 45.7333 -52.9333 262° West 430 495 34,000  Level Moncton Center
10:04AM 45.7167 -53.1167 263° West 420 483 34,000  Level Moncton Center
10:05AM 45.7000 -53.2667 261° West 430 495 34,000  Level Gander Center
10:06AM 45.6833 -53.4333 262° West 430 495 34,000  Level Moncton Center
10:07AM 45.6667 -53.6333 263° West 430 495 34,000  Level Moncton Center
10:08AM 45.6500 -53.7833 261° West 430 495 34,000  Level Moncton Center
10:09AM 45.6333 -53.9500 262° West 430 495 34,000  Level Moncton Center
10:10AM 45.6333 -54.1500 270° West 430 495 34,000  Level Gander Center
10:11AM 45.6000 -54.2833 250° West 430 495 34,000  Level Gander Center
10:12AM 45.5833 -54.4667 263° West 430 495 34,000  Level Moncton Center
10:13AM 45.5667 -54.6333 262° West 430 495 34,000  Level Moncton Center
10:14AM 45.5500 -54.8000 262° West 430 495 34,000  Level Moncton Center
10:15AM 45.5333 -54.9833 263° West 440 506 34,000  Level Moncton Center
10:16AM 45.5167 -55.1167 260° West 430 495 34,000  Level Moncton Center
10:17AM 45.5000 -55.3167 263° West 440 506 34,000  Level Moncton Center
10:18AM 45.4833 -55.4667 261° West 440 506 34,000  Level Moncton Center
10:19AM 45.4667 -55.6500 263° West 440 506 34,000  Level Gander Center
10:20AM 45.4500 -55.8333 263° West 440 506 34,000  Level Moncton Center
10:21AM 45.4333 -56.0000 262° West 440 506 34,000  Level Moncton Center
10:22AM 45.4167 -56.2000 263° West 450 518 34,000  Level Gander Center
10:23AM 45.4167 -56.3667 270° West 450 518 34,000  Level Gander Center
10:24AM 45.4000 -56.5500 263° West 450 518 34,000  Level Gander Center
10:25AM 45.4167 -56.7000 279° West 450 518 34,000  Level Moncton Center
10:26AM 45.3833 -56.8833 256° West 450 518 34,000  Level Moncton Center
10:27AM 45.3833 -57.0500 270° West 440 506 34,000  Level Moncton Center
10:28AM 45.3833 -57.2500 270° West 440 506 34,000  Level Moncton Center
10:29AM 45.3500 -57.4000 253° West 440 506 34,000  Level Moncton Center
10:30AM 45.3333 -57.5667 262° West 440 506 34,000  Level Moncton Center
10:31AM 45.3000 -57.7333 254° West 440 506 34,000  Level Moncton Center
10:32AM 45.2833 -57.9000 262° West 440 506 34,000  Level Moncton Center
10:33AM 45.2500 -58.1000 257° West 440 506 34,000  Level Moncton Center
10:34AM 45.2167 -58.2500 253° West 440 506 34,000  Level Moncton Center
10:36AM 45.1833 -58.6167 263° West 450 518 34,000  Level Gander Center
10:37AM 45.1500 -58.8000 256° West 460 529 34,000  Level Moncton Center
10:38AM 45.1167 -58.9833 256° West 470 541 34,000  Level Gander Center
10:39AM 45.0833 -59.1500 254° West 470 541 34,000  Level Gander Center
10:40AM 45.0667 -59.3167 262° West 470 541 34,000  Level Gander Center
10:41AM 45.0333 -59.5167 257° West 470 541 34,000  Level Gander Center
10:42AM 45.0000 -59.6833 254° West 470 541 34,000  Level Gander Center
10:43AM 44.9833 -59.8500 262° West 460 529 34,000  Level Moncton Center
10:44AM 44.9333 -60.0500 251° West 460 529 34,000  Level Moncton Center
10:45AM 44.9167 -60.2167 262° West 460 529 34,000  Level Moncton Center
10:46AM 44.8833 -60.3833 254° West 460 529 34,000  Level Gander Center
10:47AM 44.8500 -60.5833 257° West 460 529 34,000  Level Gander Center
10:48AM 44.8333 -60.7333 261° West 460 529 34,000  Level Gander Center
10:49AM 44.8000 -60.9167 256° West 460 529 34,000  Level Moncton Center
10:50AM 44.7667 -61.1000 256° West 460 529 34,000  Level Moncton Center
10:51AM 44.7333 -61.2667 254° West 460 529 34,000  Level Moncton Center
10:52AM 44.7000 -61.4500 256° West 460 529 34,000  Level Moncton Center
10:53AM 44.6833 -61.6333 263° West 460 529 34,000  Level Gander Center
10:54AM 44.6500 -61.8167 256° West 460 529 34,000  Level Gander Center
10:55AM 44.6000 -61.9833 247° West 460 529 34,000  Level Gander Center
10:56AM 44.5833 -62.1500 262° West 460 529 34,000  Level Moncton Center
10:57AM 44.5333 -62.3333 249° West 460 529 34,000  Level Moncton Center
10:58AM 44.5000 -62.5000 254° West 460 529 34,000  Level Moncton Center
10:59AM 44.4667 -62.6667 254° West 450 518 34,000  Level Moncton Center
11:00AM 44.4500 -62.8333 262° West 450 518 34,000  Level Moncton Center
11:01AM 44.4167 -63.0000 254° West 450 518 34,000  Level Moncton Center
11:02AM 44.3833 -63.1833 256° West 460 529 34,000  Level Moncton Center
11:03AM 44.3500 -63.3500 254° West 460 529 34,000  Level Moncton Center
11:04AM 44.3000 -63.5333 249° West 460 529 34,000  Level Gander Center
11:05AM 44.2667 -63.7000 254° West 460 529 34,000  Level Gander Center
11:06AM 44.2333 -63.8667 254° West 460 529 34,000  Level Gander Center
11:07AM 44.2000 -64.0167 253° West 460 529 34,000  Level Moncton Center
11:08AM 44.1667 -64.2167 257° West 460 529 34,000  Level Moncton Center
11:09AM 44.1333 -64.3667 253° West 460 529 34,000  Level Moncton Center
11:10AM 44.1000 -64.5500 256° West 460 529 34,000  Level Gander Center
11:11AM 44.0667 -64.7167 254° West 450 518 34,000  Level Moncton Center
11:12AM 44.0333 -64.8833 255° West 450 518 34,000  Level Moncton Center
11:13AM 43.9833 -65.0500 247° West 450 518 34,000  Level Moncton Center
11:14AM 43.9500 -65.2167 255° West 450 518 34,000  Level Moncton Center
11:15AM 43.9167 -65.4000 256° West 450 518 34,000  Level Moncton Center
11:16AM 43.8833 -65.5333 251° West 450 518 34,000  Level Moncton Center
11:17AM 43.8500 -65.7167 256° West 450 518 34,000  Level Moncton Center
11:18AM 43.8167 -65.8833 255° West 440 506 34,000  Level Moncton Center
11:19AM 43.7667 -66.0333 245° Southwest 450 518 34,000  Level Moncton Center
11:20AM 43.7333 -66.2000 255° West 450 518 34,000  Level Moncton Center
11:21AM 43.7000 -66.3667 255° West 450 518 34,000  Level Moncton Center
11:22AM 43.6667 -66.5500 256° West 450 518 34,000  Level Moncton Center
11:23AM 43.6333 -66.7000 253° West 450 518 34,000  Level Moncton Center
11:24AM 43.5667 -66.8667 241° Southwest 450 518 34,000  Level Moncton Center
11:25AM 43.5333 -67.0167 253° West 450 518 34,000  Level Moncton Center
11:26AM 43.5206 -67.1617 263° West 452 520 34,000  Level Boston Center
11:31AM 43.3184 -67.9166 263° West 441 507 34,000  Level FlightAware ADS-B (KBOS)
11:33AM 43.2177 -68.2631 248° West 440 506 34,000  Level FlightAware ADS-B (KBOS)
11:39AM 42.9744 -69.0774 248° West 432 497 34,000  Level FlightAware ADS-B (KBOS)
11:39AM 42.9535 -69.1464 248° West 431 496 34,000  Level FlightAware ADS-B (KBOS)
11:40AM 42.9238 -69.2438 247° West 430 495 34,000  Level FlightAware ADS-B (KBOS)
11:40AM 42.8980 -69.3273 247° West 430 495 34,000  Level FlightAware ADS-B (KBOS)
11:41AM 42.8746 -69.4033 247° West 431 496 34,000  Level FlightAware ADS-B (KBOS)
11:41AM 42.8517 -69.4772 247° West 432 497 34,000  Level FlightAware ADS-B (KBOS)
11:42AM 42.8272 -69.5562 247° West 432 497 34,000  Level FlightAware ADS-B (KBOS)
11:43AM 42.7958 -69.6568 247° West 432 497 34,000  Level FlightAware ADS-B (KBOS)
11:43AM 42.7720 -69.7331 247° West 433 498 34,000  Level FlightAware ADS-B (KBOS)
11:44AM 42.7489 -69.8073 247° West 433 498 34,000  Level FlightAware ADS-B (KBOS)
11:44AM 42.7238 -69.8870 247° West 435 501 34,000  Level FlightAware ADS-B (KBOS)
11:45AM 42.6931 -69.9840 247° West 435 501 34,000  Level FlightAware ADS-B (KBOS)
11:45AM 42.6690 -70.0603 247° West 434 499 34,000  Level FlightAware ADS-B (KBOS)
11:46AM 42.6379 -70.1583 247° West 434 499 34,000  Level FlightAware ADS-B (KBOS)
11:46AM 42.6134 -70.2349 246° West 435 501 34,000  Level FlightAware ADS-B (KBOS)
11:47AM 42.5824 -70.3320 247° West 434 499 34,000  Level FlightAware ADS-B (KBOS)
11:48AM 42.5580 -70.4079 246° West 434 499 34,000  Level FlightAware ADS-B (KBOS)
11:48AM 42.5328 -70.4858 246° West 435 501 34,000  Level FlightAware ADS-B (KBOS)
11:49AM 42.5086 -70.5607 246° West 435 501 34,000  Level FlightAware ADS-B (KBOS)
11:49AM 42.4842 -70.6358 246° West 435 501 34,000  Level FlightAware ADS-B (KBOS)
11:50AM 42.4522 -70.7344 246° West 436 502 34,000  Level FlightAware ADS-B (KBOS)
11:50AM 42.4275 -70.8107 246° West 436 502 34,000  Level FlightAware ADS-B (KBOS)
11:51AM 42.4047 -70.8803 246° West 437 503 34,000  Level FlightAware ADS-B (KBOS)
11:51AM 42.3761 -70.9809 249° West 429 494 34,000  Level FlightAware ADS-B (KBOS)
11:52AM 42.3636 -71.0768 260° West 425 489 34,000  Level FlightAware ADS-B (KBOS)
11:53AM 42.3548 -71.1534 261° West 426 490 34,000  Level FlightAware ADS-B (KBOS)
11:53AM 42.3443 -71.2480 262° West 427 491 34,000  Level FlightAware ADS-B (KBOS)
11:54AM 42.3353 -71.3292 261° West 428 493 34,000  Level FlightAware ADS-B (KBOS)
11:54AM 42.3229 -71.4373 261° West 431 496 34,000  Level FlightAware ADS-B (KBOS)
11:55AM 42.3063 -71.5836 261° West 432 497 34,000  Level FlightAware ADS-B (KBOS)
11:56AM 42.2976 -71.6580 261° West 433 498 34,000  Level FlightAware ADS-B (KSNC)
11:56AM 42.2847 -71.7691 261° West 434 499 34,000  Level FlightAware ADS-B (KBOS)
11:57AM 42.2737 -71.8634 261° West 435 501 34,000  Level FlightAware ADS-B (KSNC)
11:58AM 42.2607 -71.9721 261° West 437 503 34,000  Level FlightAware ADS-B (KSNC)
11:58AM 42.2509 -72.0547 261° West 438 504 34,000  Level FlightAware ADS-B (KSNC)
11:59AM 42.2381 -72.1633 261° West 438 504 34,000  Level FlightAware ADS-B (KSNC)
11:59AM 42.2266 -72.2589 261° West 438 504 34,000  Level FlightAware ADS-B (KSNC)
12:00PM 42.2138 -72.3638 261° West 438 504 34,000  Level FlightAware ADS-B (KSNC)
12:01PM 42.2026 -72.4568 261° West 437 503 34,000  Level FlightAware ADS-B (KSNC)
12:01PM 42.1931 -72.5048 255° West 442 509 34,000  Level FlightAware ADS-B (KSNC)
12:02PM 42.1431 -72.6142 238° Southwest 457 526 34,000  Level FlightAware ADS-B (KSNC)
12:02PM 42.1067 -72.6747 231° Southwest 455 524 34,000  Level FlightAware ADS-B (KSNC)
12:03PM 42.0402 -72.7824 230° Southwest 456 525 34,000  Level FlightAware ADS-B (KSNC)
12:03PM 42.0039 -72.8412 230° Southwest 456 525 34,000  Level FlightAware ADS-B (KSNC)
12:04PM 41.9611 -72.9095 230° Southwest 456 525 34,000  Level FlightAware ADS-B (KSNC)
12:04PM 41.9177 -72.9795 230° Southwest 456 525 34,000  Level FlightAware ADS-B (KSNC)
12:05PM 41.8803 -73.0396 230° Southwest 456 525 34,000  Level FlightAware ADS-B (KSNC)
12:06PM 41.8189 -73.1383 230° Southwest 456 525 34,000  Level FlightAware ADS-B (KSNC)
12:06PM 41.7768 -73.2056 230° Southwest 455 524 34,000  Level FlightAware ADS-B (KSNC)
12:07PM 41.7184 -73.2987 230° Southwest 454 522 34,000  Level FlightAware ADS-B (KSNC)
12:07PM 41.6788 -73.3618 230° Southwest 453 521 34,000  Level FlightAware ADS-B (KSNC)
12:08PM 41.6479 -73.4107 230° Southwest 452 520 34,000  Level FlightAware ADS-B (KSNC)
12:08PM 41.5967 -73.4920 230° Southwest 451 519 34,000  Level FlightAware ADS-B (KSNC)
12:09PM 41.5591 -73.5515 230° Southwest 450 518 34,000  Level FlightAware ADS-B (KSNC)
12:10PM 41.5043 -73.6380 230° Southwest 450 518 34,000  Level FlightAware ADS-B (KSNC)
12:10PM 41.4610 -73.7062 230° Southwest 449 517 34,000  Level FlightAware ADS-B (KSNC)
12:11PM 41.4086 -73.7885 230° Southwest 446 513 34,000  Level FlightAware ADS-B (KSNC)
12:11PM 41.3666 -73.8542 230° Southwest 445 512 34,000  Level FlightAware ADS-B (KSNC)
12:12PM 41.3115 -73.9407 230° Southwest 443 510 34,000  Level FlightAware ADS-B (KSNC)
12:12PM 41.2982 -73.9612 229° Southwest 443 510 34,000  Level FlightAware ADS-B
12:13PM 41.2520 -74.0331 229° Southwest 441 507 34,000  Level FlightAware ADS-B
12:13PM 41.2251 -74.0751 230° Southwest 441 507 34,000  Level FlightAware ADS-B (KSNC)
12:13PM 41.2068 -74.1035 229° Southwest 442 509 34,000  Level FlightAware ADS-B
12:14PM 41.1774 -74.1492 229° Southwest 443 510 34,000  Level FlightAware ADS-B (KSNC)
12:16PM 41.0389 -74.3389 228° Southwest 445 512 34,000  Level New York Center
12:17PM 40.9583 -74.4583 228° Southwest 445 512 34,000 -660 Level New York Center
12:21PM 40.6152 -74.9631 228° Southwest  Level FlightAware Approximate
12:22PM 40.5350 -75.1260 228° Southwest 447 514 30,000  Level FlightAware
12:22PM 40.4900 -75.1940 229° Southwest 444 511 30,000  Level FlightAware
12:23PM 40.4420 -75.2660 229° Southwest 443 510 30,000  Level FlightAware
12:23PM 40.3930 -75.3440 230° Southwest 441 507 30,000  Level FlightAware
12:24PM 40.3510 -75.4140 232° Southwest 439 505 30,000  Level FlightAware
12:25PM 40.3050 -75.4890 231° Southwest 439 505 30,000  Level FlightAware
12:25PM 40.2660 -75.5520 231° Southwest 440 506 30,000  Level FlightAware
12:26PM 40.2180 -75.6290 231° Southwest 441 507 30,000  Level FlightAware
12:26PM 40.1740 -75.6990 231° Southwest 440 506 30,000  Level FlightAware
12:27PM 40.1260 -75.7750 230° Southwest 440 506 30,000  Level FlightAware
12:27PM 40.0984 -75.8189 231° Southwest 441 507 30,000  Level FlightAware ADS-B
12:28PM 40.0621 -75.8766 231° Southwest 440 506 30,000  Level FlightAware ADS-B
12:28PM 40.0183 -75.9460 231° Southwest 440 506 30,000  Level FlightAware ADS-B
12:29PM 39.9790 -76.0085 231° Southwest 440 506 30,000  Level FlightAware ADS-B
12:29PM 39.9400 -76.0699 230° Southwest 440 506 30,000  Level FlightAware ADS-B
12:30PM 39.9007 -76.1317 230° Southwest 439 505 30,000  Level FlightAware ADS-B
12:30PM 39.8500 -76.2110 230° Southwest 438 504 30,000  Level FlightAware ADS-B
12:31PM 39.8121 -76.2704 230° Southwest 438 504 30,000  Level FlightAware ADS-B
12:32PM 39.7572 -76.3561 230° Southwest 438 504 30,000  Level FlightAware ADS-B
12:32PM 39.7065 -76.4349 230° Southwest 439 505 30,000  Level FlightAware ADS-B
12:33PM 39.6676 -76.4957 230° Southwest 438 504 30,000  Level FlightAware ADS-B
12:33PM 39.6156 -76.5756 230° Southwest 439 505 30,000  Level FlightAware ADS-B
12:34PM 39.5823 -76.6271 230° Southwest 439 505 30,000  Level FlightAware ADS-B
12:35PM 39.5241 -76.7166 230° Southwest 438 504 30,000  Level FlightAware ADS-B
12:35PM 39.4780 -76.7880 230° Southwest 437 503 30,000  Level FlightAware
12:35PM 39.4735 -76.7941 226° Southwest 439 505 30,000  Level FlightAware ADS-B
12:36PM 39.4314 -76.8585 230° Southwest 438 504 30,000  Level FlightAware ADS-B
12:36PM 39.3900 -76.9230 230° Southwest 438 504 30,000  Level FlightAware
12:37PM 39.3650 -76.9599 229° Southwest 438 504 30,000  Level FlightAware ADS-B
12:38PM 39.2490 -77.1360 230° Southwest 437 503 30,000  Level FlightAware
12:39PM 39.2030 -77.2050 229° Southwest 436 502 30,000  Level FlightAware
12:39PM 39.1600 -77.2690 229° Southwest 434 499 30,000  Level FlightAware
12:40PM 39.2307 -77.1632 49° Northeast 435 501 30,000  Level FlightAware ADS-B
12:40PM 39.0670 -77.4100 230° Southwest 435 501 30,000  Level FlightAware
12:41PM 39.0210 -77.4770 229° Southwest 434 499 30,000  Level FlightAware
12:42PM 38.9750 -77.5470 230° Southwest 433 498 30,000  Level FlightAware
12:42PM 38.9330 -77.6080 228° Southwest 432 497 30,000  Level FlightAware
12:43PM 38.8830 -77.6830 229° Southwest 431 496 30,000  Level FlightAware
12:43PM 38.8360 -77.7520 229° Southwest 429 494 30,000  Level FlightAware
12:44PM 38.7900 -77.8210 229° Southwest 428 493 30,000  Level FlightAware
12:45PM 38.7490 -77.8810 229° Southwest 427 491 30,000  Level FlightAware
12:45PM 38.7010 -77.9500 228° Southwest 427 491 30,000  Level FlightAware
12:46PM 38.6570 -78.0150 229° Southwest 427 491 30,000  Level FlightAware
12:46PM 38.6130 -78.0800 229° Southwest 427 491 30,000  Level FlightAware
12:47PM 38.5650 -78.1490 228° Southwest 426 490 30,000  Level FlightAware
12:47PM 38.5200 -78.2150 229° Southwest 426 490 30,000  Level FlightAware
12:48PM 38.4720 -78.2840 228° Southwest 425 489 30,000  Level FlightAware
12:49PM 38.4310 -78.3440 229° Southwest 424 488 30,000  Level FlightAware
12:49PM 38.3850 -78.4110 229° Southwest 423 487 30,000 720 Level FlightAware
12:50PM 38.3400 -78.4760 229° Southwest 425 489 30,900 1,620 Climbing FlightAware
12:50PM 38.2940 -78.5420 228° Southwest 425 489 31,900 1,800 Climbing FlightAware
12:51PM 38.2500 -78.6040 228° Southwest 420 483 33,000 1,620 Climbing FlightAware
12:52PM 38.2020 -78.6730 228° Southwest 417 480 33,900 780 Climbing FlightAware
12:52PM 38.1560 -78.7400 229° Southwest 422 486 34,000 60 Climbing FlightAware
12:53PM 38.1160 -78.7960 228° Southwest 422 486 34,000  Level FlightAware
12:53PM 38.0780 -78.8490 228° Southwest 422 486 34,000  Level FlightAware
12:54PM 38.0210 -78.9320 229° Southwest 423 487 34,000  Level FlightAware
12:54PM 37.9770 -78.9940 228° Southwest 423 487 34,000  Level FlightAware
12:55PM 37.9320 -79.0580 228° Southwest 423 487 34,000  Level FlightAware
12:56PM 37.8820 -79.1240 226° Southwest 421 484 34,000  Level FlightAware
12:56PM 37.8410 -79.1830 229° Southwest 420 483 34,000  Level FlightAware
12:57PM 37.7930 -79.2510 228° Southwest 409 471 34,000  Level FlightAware
12:58PM 37.7370 -79.3270 227° Southwest 406 467 34,000  Level FlightAware
12:58PM 37.7000 -79.3770 227° Southwest 406 467 34,000  Level FlightAware
12:59PM 37.6600 -79.4320 227° Southwest 406 467 34,000  Level FlightAware
12:59PM 37.6230 -79.4820 227° Southwest 406 467 34,000  Level FlightAware
01:00PM 37.5810 -79.5380 227° Southwest 406 467 34,000  Level FlightAware
01:01PM 37.5440 -79.5880 227° Southwest 406 467 34,000  Level FlightAware
01:01PM 37.5020 -79.6450 227° Southwest 406 467 34,000  Level FlightAware
01:02PM 37.4620 -79.6980 226° Southwest 406 467 34,000  Level FlightAware
01:02PM 37.4220 -79.7530 228° Southwest 406 467 34,000  Level FlightAware
01:03PM 37.3210 -79.8890 227° Southwest 405 466 34,000  Level FlightAware
01:04PM 37.2630 -79.9670 227° Southwest 408 470 34,000  Level FlightAware
01:05PM 37.2000 -80.0520 227° Southwest 409 471 34,000  Level FlightAware
01:05PM 37.1610 -80.1050 227° Southwest 409 471 34,000  Level FlightAware
01:06PM 37.1210 -80.1580 227° Southwest 409 471 34,000  Level FlightAware
01:06PM 37.0810 -80.2130 228° Southwest 409 471 34,000  Level FlightAware
01:07PM 37.0420 -80.2640 226° Southwest 409 471 34,000  Level FlightAware
01:08PM 37.0020 -80.3190 228° Southwest 409 471 34,000  Level FlightAware
01:08PM 36.9650 -80.3690 227° Southwest 409 471 34,000  Level FlightAware
01:09PM 36.9240 -80.4230 226° Southwest 409 471 34,000  Level FlightAware
01:09PM 36.8830 -80.4780 227° Southwest 409 471 34,000  Level FlightAware
01:10PM 36.8440 -80.5310 227° Southwest 409 471 34,000  Level FlightAware
01:11PM 36.8040 -80.5830 226° Southwest 409 471 34,000  Level FlightAware
01:11PM 36.7550 -80.6490 227° Southwest 409 471 34,000  Level FlightAware
01:12PM 36.7130 -80.7050 227° Southwest 409 471 34,000  Level FlightAware
01:13PM 36.6760 -80.7550 227° Southwest 409 471 34,000  Level FlightAware
01:13PM 36.6340 -80.8110 227° Southwest 409 471 34,000  Level FlightAware
01:14PM 36.5950 -80.8640 228° Southwest 409 471 34,000  Level FlightAware
01:14PM 36.4280 -81.0820 226° Southwest 424 488 34,000  Level FlightAware
01:15PM 36.3810 -81.1440 227° Southwest 424 488 34,000  Level FlightAware
01:16PM 36.3850 -81.1390 45° Northeast 425 489 34,000  Level FlightAware
01:17PM 36.2520 -81.3140 227° Southwest 427 491 34,000  Level FlightAware
01:17PM 36.1840 -81.4020 226° Southwest 428 493 34,000  Level FlightAware
01:18PM 36.2130 -81.3640 47° Northeast 428 493 34,000  Level FlightAware
01:19PM 36.0690 -81.5520 227° Southwest 427 491 34,000  Level FlightAware
01:19PM 36.0260 -81.6070 226° Southwest 427 491 34,000  Level FlightAware
01:20PM 35.9920 -81.6510 226° Southwest 426 490 34,000  Level FlightAware
01:21PM 35.9200 -81.7450 227° Southwest 425 489 34,000  Level FlightAware
01:21PM 35.8700 -81.8100 227° Southwest 425 489 34,000  Level FlightAware
01:22PM 35.8250 -81.8670 226° Southwest 425 489 34,000  Level FlightAware
01:22PM 35.7770 -81.9300 227° Southwest 425 489 34,000  Level FlightAware
01:23PM 35.7290 -81.9920 226° Southwest 425 489 34,000  Level FlightAware
01:23PM 35.6870 -82.0460 226° Southwest 425 489 34,000  Level FlightAware
01:24PM 35.6220 -82.1250 225° Southwest 426 490 34,000  Level FlightAware
01:25PM 35.5720 -82.1800 222° Southwest 427 491 34,000 -360 Level FlightAware
01:26PM 35.5080 -82.2540 223° Southwest 431 496 33,600 -360 Descending FlightAware
01:26PM 35.4550 -82.3140 223° Southwest 432 497 33,500 -1,020 Descending FlightAware
01:27PM 35.3910 -82.3880 223° Southwest 440 506 32,200 -1,860 Descending FlightAware
01:28PM 35.3250 -82.4630 223° Southwest 451 519 31,000 -1,320 Descending FlightAware
01:28PM 35.2710 -82.5250 223° Southwest 450 518 30,600 -780 Descending FlightAware
01:29PM 35.2150 -82.5890 223° Southwest 447 514 30,100 -780 Descending FlightAware
01:29PM 35.1630 -82.6480 223° Southwest 442 509 29,700 -840 Descending FlightAware
01:30PM 35.1140 -82.7040 223° Southwest 438 504 29,200 -1,140 Descending FlightAware
01:31PM 35.0570 -82.7690 223° Southwest 443 510 28,400 -1,440 Descending FlightAware
01:31PM 35.0070 -82.8260 223° Southwest 456 525 27,500 -1,380 Descending FlightAware
01:32PM 34.9510 -82.8890 223° Southwest 456 525 26,800 -1,080 Descending FlightAware
01:32PM 34.8920 -82.9560 223° Southwest 453 521 26,200 -1,020 Descending FlightAware
01:33PM 34.8450 -83.0080 222° Southwest 450 518 25,700 -900 Descending FlightAware
01:33PM 34.7900 -83.0700 223° Southwest 447 514 25,200 -840 Descending FlightAware
01:34PM 34.7380 -83.1280 223° Southwest 444 511 24,700 -960 Descending FlightAware
01:35PM 34.6850 -83.1880 223° Southwest 440 506 24,100 -600 Descending FlightAware
01:35PM 34.6300 -83.2490 222° Southwest 436 502 24,000 -120 Descending FlightAware
01:36PM 34.5780 -83.3070 223° Southwest 440 506 24,000 -120 Level FlightAware
01:36PM 34.5290 -83.3620 223° Southwest 439 505 23,900 -480 Descending FlightAware
01:37PM 34.4770 -83.4210 223° Southwest 424 488 23,500 -780 Descending FlightAware
01:38PM 34.4260 -83.4780 223° Southwest 409 471 23,000 -1,380 Descending FlightAware
01:38PM 34.3810 -83.5310 224° Southwest 402 463 21,900 -2,040 Descending FlightAware
01:39PM 34.3360 -83.5860 225° Southwest 401 461 20,700 -2,220 Descending FlightAware
01:39PM 34.2880 -83.6450 225° Southwest 386 444 19,300 -1,980 Descending FlightAware
01:40PM 34.2440 -83.6970 224° Southwest 357 411 18,300 -1,980 Descending FlightAware
01:40PM 34.2030 -83.7380 220° Southwest 355 409 17,100 -2,040 Descending FlightAware
01:41PM 34.1570 -83.7820 218° Southwest 363 418 16,000 -1,860 Descending FlightAware
01:42PM 34.1090 -83.8300 220° Southwest 362 417 14,900 -1,620 Descending FlightAware
01:42PM 34.0630 -83.8760 220° Southwest 351 404 14,100 -720 Descending FlightAware
01:43PM 34.0260 -83.9170 223° Southwest 352 405 14,100  Level FlightAware
01:43PM 33.9820 -83.9660 223° Southwest 356 410 14,100  Level FlightAware
01:44PM 33.9300 -84.0100 215° Southwest 356 410 14,100  Level FlightAware
01:44PM 33.8890 -84.0400 211° Southwest 354 407 14,100 -360 Level FlightAware
01:45PM 33.8370 -84.0780 211° Southwest 354 407 13,700 -1,020 Descending FlightAware
01:46PM 33.7840 -84.1150 210° Southwest 346 398 12,900 -1,440 Descending FlightAware
01:46PM 33.7600 -84.1340 213° Southwest 342 394 12,400 -1,500 Descending FlightAware
01:46PM 33.7500 -84.1470 227° Southwest 338 389 12,200 -1,140 Descending FlightAware
01:46PM 33.7450 -84.1600 245° Southwest 336 387 12,100 -360 Descending FlightAware
01:46PM 33.7410 -84.1780 255° West 341 392 12,100 -180 Level FlightAware
01:47PM 33.7330 -84.2470 262° West 345 397 12,000 -120 Descending FlightAware
01:48PM 33.7280 -84.3120 265° West 313 360 12,000 -120 Level FlightAware
01:48PM 33.7280 -84.3730 270° West 289 333 11,900 -360 Descending FlightAware
01:49PM 33.7280 -84.4250 270° West 268 308 11,600 -840 Descending FlightAware
01:49PM 33.7280 -84.4730 270° West 242 278 11,000 -1,200 Descending FlightAware
01:50PM 33.7290 -84.5170 272° West 235 270 10,300 -1,200 Descending FlightAware
01:50PM 33.7290 -84.5460 270° West 235 270 9,900 -1,020 Descending FlightAware
01:51PM 33.7290 -84.5720 270° West 233 268 9,600 -900 Descending FlightAware
01:51PM 33.7290 -84.5960 270° West 231 266 9,300 -1,080 Descending FlightAware
01:51PM 33.7290 -84.6310 270° West 232 267 8,800 -1,080 Descending FlightAware
01:52PM 33.7290 -84.6560 270° West 230 265 8,500 -900 Descending FlightAware
01:52PM 33.7290 -84.6660 270° West 228 262 8,400 -960 Descending FlightAware
01:52PM 33.7290 -84.6960 270° West 225 259 8,000 -900 Descending FlightAware
01:53PM 33.7300 -84.7270 272° West 222 255 7,700 -960 Descending FlightAware
01:53PM 33.7300 -84.7510 270° West 225 259 7,300 -1,200 Descending FlightAware
01:53PM 33.7300 -84.7760 270° West 227 261 6,900 -1,260 Descending FlightAware
01:54PM 33.7300 -84.7940 270° West 226 260 6,600 -1,440 Descending FlightAware
01:54PM 33.7300 -84.8290 270° West 221 254 5,900 -1,680 Descending FlightAware
01:54PM 33.7300 -84.8530 270° West 220 253 5,300 -1,200 Descending FlightAware
01:55PM 33.7300 -84.8800 270° West 221 254 5,100 -480 Descending FlightAware
01:55PM 33.7270 -84.9020 261° West 212 244 5,000  Descending FlightAware
01:55PM 33.7230 -84.9090 236° Southwest 203 234 5,100 300 Climbing FlightAware
01:55PM 33.7150 -84.9150 212° Southwest 193 222 5,100  Level FlightAware
01:55PM 33.7120 -84.9160 195° South 193 222 5,100  Level FlightAware
01:56PM 33.7060 -84.9160 180° South 193 222 5,100  Level FlightAware
01:56PM 33.6900 -84.9140 174° South 196 226 5,100 -180 Level FlightAware
01:56PM 33.6730 -84.9110 172° South 184 212 5,000 -240 Descending FlightAware
01:56PM 33.6670 -84.9090 164° South 185 213 5,000 480 Level FlightAware
01:56PM 33.6630 -84.9070 157° South 188 216 5,100 420 Climbing FlightAware
01:57PM 33.6580 -84.9010 135° Southeast 190 219 5,100  Level FlightAware
01:57PM 33.6540 -84.8940 124° Southeast 196 226 5,100  Level FlightAware
01:57PM 33.6520 -84.8850 105° East 198 228 5,100  Level FlightAware
01:57PM 33.6480 -84.8680 106° East 198 228 5,100  Level FlightAware
01:58PM 33.6480 -84.8240 90° East 197 227 5,100  Level FlightAware
01:58PM 33.6480 -84.8000 90° East 198 228 5,100  Level FlightAware
01:58PM 33.6490 -84.7800 87° East 199 229 5,100  Level FlightAware
01:59PM 33.6490 -84.7640 90° East 200 230 5,100  Level FlightAware
01:59PM 33.6490 -84.7430 90° East 201 231 5,100  Level FlightAware
01:59PM 33.6490 -84.7160 90° East 200 230 5,100 -180 Level FlightAware
02:00PM 33.6490 -84.7010 90° East 201 231 5,000 -600 Descending FlightAware
02:00PM 33.6500 -84.6820 86° East 203 234 4,800 -900 Descending FlightAware
02:00PM 33.6500 -84.6620 90° East 203 234 4,500 -960 Descending FlightAware
02:00PM 33.6500 -84.6470 90° East 202 232 4,300 -1,140 Descending FlightAware
02:01PM 33.6500 -84.6250 90° East 199 229 3,900 -1,140 Descending FlightAware
02:01PM 33.6500 -84.5990 90° East 193 222 3,500 -1,140 Descending FlightAware
02:01PM 33.6500 -84.5770 90° East 178 205 3,100 -1,020 Descending FlightAware
02:02PM 33.6500 -84.5580 90° East 160 184 2,800 -780 Descending FlightAware
02:02PM 33.6500 -84.5490 90° East 156 180 2,700 -780 Descending FlightAware
02:02PM 33.6510 -84.5290 87° East 156 180 2,400 -840 Descending FlightAware
02:03PM 33.6510 -84.5190 90° East 154 177 2,200 -840 Descending FlightAware
02:03PM 33.6510 -84.4980 90° East 154 177 1,900 -840 Descending FlightAware
02:03PM 33.6510 -84.4800 90° East 153 176 1,600 -840 Descending FlightAware
02:04PM 33.6510 -84.4680 90° East 152 175 1,400 -720 Descending FlightAware
02:04PM 33.6510 -84.4500 90° East 157 181 1,200 -600 Descending FlightAware
02:04PM 33.6510 -84.4330 90° East 105 121 -3,600 Descending FlightAware